sensor_id;sensor_type;location;lat;lon;timestamp;P1;durP1;ratioP1;P2;durP2;ratioP2
19163;SDS011;9714;51.208;4.242;2023-04-15T00:00:14;19.30;;;5.13;;
19163;SDS011;9714;51.208;4.242;2023-04-15T00:02:48;16.00;;;5.60;;
19163;SDS011;9714;51.208;4.242;2023-04-15T00:05:43;14.57;;;5.10;;
19163;SDS011;9714;51.208;4.242;2023-04-15T00:08:12;13.17;;;5.33;;
19163;SDS011;9714;51.208;4.242;2023-04-15T00:10:40;16.47;;;5.33;;
19163;SDS011;9714;51.208;4.242;2023-04-15T00:13:14;11.60;;;5.10;;
19163;SDS011;9714;51.208;4.242;2023-04-15T00:15:41;14.23;;;5.17;;
19163;SDS011;9714;51.208;4.242;2023-04-15T00:18:09;11.33;;;5.03;;
19163;SDS011;9714;51.208;4.242;2023-04-15T00:20:36;16.13;;;5.77;;
19163;SDS011;9714;51.208;4.242;2023-04-15T00:23:04;12.10;;;5.73;;
19163;SDS011;9714;51.208;4.242;2023-04-15T00:25:33;12.33;;;5.27;;
19163;SDS011;9714;51.208;4.242;2023-04-15T00:28:13;15.33;;;5.50;;
19163;SDS011;9714;51.208;4.242;2023-04-15T00:30:46;13.63;;;5.33;;
19163;SDS011;9714;51.208;4.242;2023-04-15T00:33:19;13.47;;;5.60;;
19163;SDS011;9714;51.208;4.242;2023-04-15T00:35:47;15.07;;;5.80;;
19163;SDS011;9714;51.208;4.242;2023-04-15T00:38:16;15.50;;;5.57;;
19163;SDS011;9714;51.208;4.242;2023-04-15T00:40:44;14.60;;;5.57;;
19163;SDS011;9714;51.208;4.242;2023-04-15T00:43:11;13.43;;;6.17;;
19163;SDS011;9714;51.208;4.242;2023-04-15T00:45:38;15.77;;;5.63;;
19163;SDS011;9714;51.208;4.242;2023-04-15T00:48:05;13.47;;;5.53;;
19163;SDS011;9714;51.208;4.242;2023-04-15T00:50:37;17.37;;;6.77;;
19163;SDS011;9714;51.208;4.242;2023-04-15T00:53:04;13.37;;;6.03;;
19163;SDS011;9714;51.208;4.242;2023-04-15T00:55:31;14.00;;;5.60;;
19163;SDS011;9714;51.208;4.242;2023-04-15T00:58:01;13.80;;;5.77;;
19163;SDS011;9714;51.208;4.242;2023-04-15T01:00:30;12.97;;;5.47;;
19163;SDS011;9714;51.208;4.242;2023-04-15T01:02:57;13.23;;;5.77;;
19163;SDS011;9714;51.208;4.242;2023-04-15T01:05:24;16.27;;;5.30;;
19163;SDS011;9714;51.208;4.242;2023-04-15T01:07:53;13.90;;;5.57;;
19163;SDS011;9714;51.208;4.242;2023-04-15T01:10:21;15.07;;;6.10;;
19163;SDS011;9714;51.208;4.242;2023-04-15T01:12:49;13.57;;;5.43;;
19163;SDS011;9714;51.208;4.242;2023-04-15T01:15:17;13.17;;;5.70;;
19163;SDS011;9714;51.208;4.242;2023-04-15T01:17:46;13.10;;;5.30;;
19163;SDS011;9714;51.208;4.242;2023-04-15T01:20:16;14.67;;;5.40;;
19163;SDS011;9714;51.208;4.242;2023-04-15T01:23:00;16.50;;;5.63;;
19163;SDS011;9714;51.208;4.242;2023-04-15T01:29:50;15.37;;;6.00;;
19163;SDS011;9714;51.208;4.242;2023-04-15T01:35:10;15.07;;;6.00;;
19163;SDS011;9714;51.208;4.242;2023-04-15T01:38:04;16.60;;;5.90;;
19163;SDS011;9714;51.208;4.242;2023-04-15T01:40:57;14.33;;;6.07;;
19163;SDS011;9714;51.208;4.242;2023-04-15T01:43:37;13.90;;;6.20;;
19163;SDS011;9714;51.208;4.242;2023-04-15T01:46:05;13.60;;;6.17;;
19163;SDS011;9714;51.208;4.242;2023-04-15T01:48:32;13.40;;;5.40;;
19163;SDS011;9714;51.208;4.242;2023-04-15T01:50:59;13.33;;;5.43;;
19163;SDS011;9714;51.208;4.242;2023-04-15T01:53:27;11.27;;;4.87;;
19163;SDS011;9714;51.208;4.242;2023-04-15T01:55:55;11.33;;;4.73;;
19163;SDS011;9714;51.208;4.242;2023-04-15T01:58:22;11.47;;;4.60;;
19163;SDS011;9714;51.208;4.242;2023-04-15T02:00:51;11.23;;;4.90;;
19163;SDS011;9714;51.208;4.242;2023-04-15T02:03:20;13.37;;;4.87;;
19163;SDS011;9714;51.208;4.242;2023-04-15T02:05:54;18.03;;;5.37;;
19163;SDS011;9714;51.208;4.242;2023-04-15T02:08:30;12.50;;;4.80;;
19163;SDS011;9714;51.208;4.242;2023-04-15T02:11:06;12.37;;;4.90;;
19163;SDS011;9714;51.208;4.242;2023-04-15T02:13:42;12.40;;;5.03;;
19163;SDS011;9714;51.208;4.242;2023-04-15T02:19:01;11.63;;;4.37;;
19163;SDS011;9714;51.208;4.242;2023-04-15T02:21:32;14.13;;;5.10;;
19163;SDS011;9714;51.208;4.242;2023-04-15T02:24:00;10.50;;;4.37;;
19163;SDS011;9714;51.208;4.242;2023-04-15T02:26:36;11.83;;;4.27;;
19163;SDS011;9714;51.208;4.242;2023-04-15T02:29:11;12.30;;;4.10;;
19163;SDS011;9714;51.208;4.242;2023-04-15T02:31:41;11.10;;;3.80;;
19163;SDS011;9714;51.208;4.242;2023-04-15T02:37:25;12.20;;;4.00;;
19163;SDS011;9714;51.208;4.242;2023-04-15T02:45:18;7.80;;;3.30;;
19163;SDS011;9714;51.208;4.242;2023-04-15T02:47:49;11.40;;;4.23;;
19163;SDS011;9714;51.208;4.242;2023-04-15T02:50:18;9.70;;;3.47;;
19163;SDS011;9714;51.208;4.242;2023-04-15T02:52:45;10.23;;;3.43;;
19163;SDS011;9714;51.208;4.242;2023-04-15T02:55:12;11.73;;;4.33;;
19163;SDS011;9714;51.208;4.242;2023-04-15T02:57:40;11.40;;;3.57;;
19163;SDS011;9714;51.208;4.242;2023-04-15T03:00:07;10.40;;;3.73;;
19163;SDS011;9714;51.208;4.242;2023-04-15T03:02:36;11.70;;;4.10;;
19163;SDS011;9714;51.208;4.242;2023-04-15T03:05:10;14.40;;;4.50;;
19163;SDS011;9714;51.208;4.242;2023-04-15T03:07:38;12.57;;;4.57;;
19163;SDS011;9714;51.208;4.242;2023-04-15T03:10:05;15.10;;;5.13;;
19163;SDS011;9714;51.208;4.242;2023-04-15T03:12:33;11.47;;;4.83;;
19163;SDS011;9714;51.208;4.242;2023-04-15T03:15:00;15.00;;;4.97;;
19163;SDS011;9714;51.208;4.242;2023-04-15T03:17:36;15.80;;;5.17;;
19163;SDS011;9714;51.208;4.242;2023-04-15T03:20:03;13.40;;;5.13;;
19163;SDS011;9714;51.208;4.242;2023-04-15T03:22:33;18.40;;;4.93;;
19163;SDS011;9714;51.208;4.242;2023-04-15T03:25:01;17.30;;;5.80;;
19163;SDS011;9714;51.208;4.242;2023-04-15T03:27:28;12.43;;;4.57;;
19163;SDS011;9714;51.208;4.242;2023-04-15T03:29:56;12.83;;;4.60;;
19163;SDS011;9714;51.208;4.242;2023-04-15T03:32:23;12.53;;;4.53;;
19163;SDS011;9714;51.208;4.242;2023-04-15T03:34:51;15.40;;;5.47;;
19163;SDS011;9714;51.208;4.242;2023-04-15T03:37:18;18.00;;;5.70;;
19163;SDS011;9714;51.208;4.242;2023-04-15T03:39:47;13.60;;;5.37;;
19163;SDS011;9714;51.208;4.242;2023-04-15T03:45:25;15.63;;;5.40;;
19163;SDS011;9714;51.208;4.242;2023-04-15T03:47:59;15.60;;;5.07;;
19163;SDS011;9714;51.208;4.242;2023-04-15T03:50:39;14.37;;;5.30;;
19163;SDS011;9714;51.208;4.242;2023-04-15T03:53:21;16.00;;;5.60;;
19163;SDS011;9714;51.208;4.242;2023-04-15T04:02:52;14.37;;;4.77;;
19163;SDS011;9714;51.208;4.242;2023-04-15T04:05:41;15.93;;;5.20;;
19163;SDS011;9714;51.208;4.242;2023-04-15T04:08:49;20.57;;;5.10;;
19163;SDS011;9714;51.208;4.242;2023-04-15T04:11:47;13.83;;;5.10;;
19163;SDS011;9714;51.208;4.242;2023-04-15T04:14:16;14.83;;;5.30;;
19163;SDS011;9714;51.208;4.242;2023-04-15T04:16:46;13.77;;;5.33;;
19163;SDS011;9714;51.208;4.242;2023-04-15T04:19:17;12.40;;;4.43;;
19163;SDS011;9714;51.208;4.242;2023-04-15T04:49:57;14.13;;;5.80;;
19163;SDS011;9714;51.208;4.242;2023-04-15T04:52:24;17.10;;;5.30;;
19163;SDS011;9714;51.208;4.242;2023-04-15T04:54:51;16.07;;;5.80;;
19163;SDS011;9714;51.208;4.242;2023-04-15T04:57:18;17.37;;;4.70;;
19163;SDS011;9714;51.208;4.242;2023-04-15T04:59:46;12.03;;;4.67;;
19163;SDS011;9714;51.208;4.242;2023-04-15T05:25:56;15.97;;;5.77;;
19163;SDS011;9714;51.208;4.242;2023-04-15T05:28:27;13.53;;;5.50;;
19163;SDS011;9714;51.208;4.242;2023-04-15T05:31:09;14.23;;;6.37;;
19163;SDS011;9714;51.208;4.242;2023-04-15T05:37:20;17.07;;;6.73;;
19163;SDS011;9714;51.208;4.242;2023-04-15T05:40:08;18.20;;;7.53;;
19163;SDS011;9714;51.208;4.242;2023-04-15T06:06:46;19.90;;;7.57;;
19163;SDS011;9714;51.208;4.242;2023-04-15T06:14:26;18.43;;;8.23;;
19163;SDS011;9714;51.208;4.242;2023-04-15T06:17:42;21.37;;;8.87;;
19163;SDS011;9714;51.208;4.242;2023-04-15T06:20:23;18.00;;;9.00;;
19163;SDS011;9714;51.208;4.242;2023-04-15T06:23:18;18.53;;;8.63;;
19163;SDS011;9714;51.208;4.242;2023-04-15T06:26:06;24.70;;;9.50;;
19163;SDS011;9714;51.208;4.242;2023-04-15T06:28:39;20.63;;;10.07;;
19163;SDS011;9714;51.208;4.242;2023-04-15T06:31:16;26.93;;;9.87;;
19163;SDS011;9714;51.208;4.242;2023-04-15T06:34:12;23.33;;;10.77;;
19163;SDS011;9714;51.208;4.242;2023-04-15T06:43:24;26.43;;;10.77;;
19163;SDS011;9714;51.208;4.242;2023-04-15T06:46:06;15.90;;;9.43;;
19163;SDS011;9714;51.208;4.242;2023-04-15T06:48:39;25.00;;;9.30;;
19163;SDS011;9714;51.208;4.242;2023-04-15T06:54:49;21.17;;;9.53;;
19163;SDS011;9714;51.208;4.242;2023-04-15T06:57:24;20.30;;;9.87;;
19163;SDS011;9714;51.208;4.242;2023-04-15T06:59:54;25.17;;;9.97;;
19163;SDS011;9714;51.208;4.242;2023-04-15T07:02:25;20.90;;;10.10;;
19163;SDS011;9714;51.208;4.242;2023-04-15T07:04:52;18.33;;;9.30;;
19163;SDS011;9714;51.208;4.242;2023-04-15T07:10:53;21.33;;;9.70;;
19163;SDS011;9714;51.208;4.242;2023-04-15T07:13:25;24.10;;;10.03;;
19163;SDS011;9714;51.208;4.242;2023-04-15T07:23:23;19.00;;;8.47;;
19163;SDS011;9714;51.208;4.242;2023-04-15T07:25:50;17.83;;;8.90;;
19163;SDS011;9714;51.208;4.242;2023-04-15T07:28:17;26.23;;;9.20;;
19163;SDS011;9714;51.208;4.242;2023-04-15T07:30:46;19.10;;;9.10;;
19163;SDS011;9714;51.208;4.242;2023-04-15T07:33:16;17.07;;;8.27;;
19163;SDS011;9714;51.208;4.242;2023-04-15T07:35:43;16.73;;;7.87;;
19163;SDS011;9714;51.208;4.242;2023-04-15T07:38:12;17.67;;;9.10;;
19163;SDS011;9714;51.208;4.242;2023-04-15T07:40:40;21.67;;;10.00;;
19163;SDS011;9714;51.208;4.242;2023-04-15T07:43:09;19.43;;;8.87;;
19163;SDS011;9714;51.208;4.242;2023-04-15T07:45:56;18.47;;;9.27;;
19163;SDS011;9714;51.208;4.242;2023-04-15T07:48:29;21.47;;;8.67;;
19163;SDS011;9714;51.208;4.242;2023-04-15T07:51:22;17.77;;;8.20;;
19163;SDS011;9714;51.208;4.242;2023-04-15T07:58:02;17.93;;;7.47;;
19163;SDS011;9714;51.208;4.242;2023-04-15T08:08:17;13.50;;;6.90;;
19163;SDS011;9714;51.208;4.242;2023-04-15T08:10:46;16.00;;;7.80;;
19163;SDS011;9714;51.208;4.242;2023-04-15T08:21:42;18.30;;;8.00;;
19163;SDS011;9714;51.208;4.242;2023-04-15T08:24:11;14.97;;;7.63;;
19163;SDS011;9714;51.208;4.242;2023-04-15T08:26:41;18.73;;;7.50;;
19163;SDS011;9714;51.208;4.242;2023-04-15T08:49:48;16.67;;;6.23;;
19163;SDS011;9714;51.208;4.242;2023-04-15T09:06:30;13.60;;;5.30;;
19163;SDS011;9714;51.208;4.242;2023-04-15T09:09:06;13.48;;;5.07;;
19163;SDS011;9714;51.208;4.242;2023-04-15T09:11:41;12.32;;;4.45;;
19163;SDS011;9714;51.208;4.242;2023-04-15T09:14:12;10.25;;;3.95;;
19163;SDS011;9714;51.208;4.242;2023-04-15T09:19:30;10.32;;;3.70;;
19163;SDS011;9714;51.208;4.242;2023-04-15T09:22:20;13.88;;;4.30;;
19163;SDS011;9714;51.208;4.242;2023-04-15T09:28:40;12.35;;;4.68;;
19163;SDS011;9714;51.208;4.242;2023-04-15T09:34:13;9.98;;;3.42;;
19163;SDS011;9714;51.208;4.242;2023-04-15T09:36:51;10.77;;;3.90;;
19163;SDS011;9714;51.208;4.242;2023-04-15T09:39:26;10.52;;;4.05;;
19163;SDS011;9714;51.208;4.242;2023-04-15T09:42:11;9.23;;;3.40;;
19163;SDS011;9714;51.208;4.242;2023-04-15T09:44:48;10.60;;;2.75;;
19163;SDS011;9714;51.208;4.242;2023-04-15T09:47:27;7.65;;;2.75;;
19163;SDS011;9714;51.208;4.242;2023-04-15T09:49:57;11.23;;;3.45;;
19163;SDS011;9714;51.208;4.242;2023-04-15T09:52:27;9.23;;;3.10;;
19163;SDS011;9714;51.208;4.242;2023-04-15T09:54:58;8.32;;;3.00;;
19163;SDS011;9714;51.208;4.242;2023-04-15T09:57:36;9.40;;;3.00;;
19163;SDS011;9714;51.208;4.242;2023-04-15T10:00:08;8.73;;;3.03;;
19163;SDS011;9714;51.208;4.242;2023-04-15T10:02:39;9.15;;;2.92;;
19163;SDS011;9714;51.208;4.242;2023-04-15T10:05:09;10.48;;;3.42;;
19163;SDS011;9714;51.208;4.242;2023-04-15T10:07:39;10.63;;;3.53;;
19163;SDS011;9714;51.208;4.242;2023-04-15T10:10:11;11.20;;;2.75;;
19163;SDS011;9714;51.208;4.242;2023-04-15T10:12:41;7.45;;;3.03;;
19163;SDS011;9714;51.208;4.242;2023-04-15T10:15:20;9.82;;;3.33;;
19163;SDS011;9714;51.208;4.242;2023-04-15T10:17:50;8.48;;;3.03;;
19163;SDS011;9714;51.208;4.242;2023-04-15T10:20:25;9.32;;;3.40;;
19163;SDS011;9714;51.208;4.242;2023-04-15T10:22:55;9.68;;;3.80;;
19163;SDS011;9714;51.208;4.242;2023-04-15T10:28:25;9.48;;;3.40;;
19163;SDS011;9714;51.208;4.242;2023-04-15T10:30:52;8.30;;;2.50;;
19163;SDS011;9714;51.208;4.242;2023-04-15T10:33:21;9.57;;;3.08;;
19163;SDS011;9714;51.208;4.242;2023-04-15T10:35:52;10.60;;;3.15;;
19163;SDS011;9714;51.208;4.242;2023-04-15T10:38:36;9.07;;;3.25;;
19163;SDS011;9714;51.208;4.242;2023-04-15T10:47:11;6.43;;;2.90;;
19163;SDS011;9714;51.208;4.242;2023-04-15T10:49:57;8.40;;;2.85;;
19163;SDS011;9714;51.208;4.242;2023-04-15T10:52:27;7.15;;;2.38;;
19163;SDS011;9714;51.208;4.242;2023-04-15T10:55:00;7.50;;;3.17;;
19163;SDS011;9714;51.208;4.242;2023-04-15T10:57:36;8.80;;;3.65;;
19163;SDS011;9714;51.208;4.242;2023-04-15T11:00:17;8.32;;;3.15;;
19163;SDS011;9714;51.208;4.242;2023-04-15T11:02:46;7.35;;;2.80;;
19163;SDS011;9714;51.208;4.242;2023-04-15T11:05:17;3.80;;;2.00;;
19163;SDS011;9714;51.208;4.242;2023-04-15T11:07:50;7.93;;;3.20;;
19163;SDS011;9714;51.208;4.242;2023-04-15T11:13:19;7.47;;;3.00;;
19163;SDS011;9714;51.208;4.242;2023-04-15T11:15:50;8.38;;;3.30;;
19163;SDS011;9714;51.208;4.242;2023-04-15T11:18:21;8.10;;;3.63;;
19163;SDS011;9714;51.208;4.242;2023-04-15T11:20:56;9.23;;;4.07;;
19163;SDS011;9714;51.208;4.242;2023-04-15T11:23:27;10.82;;;3.83;;
19163;SDS011;9714;51.208;4.242;2023-04-15T11:26:09;9.48;;;4.30;;
19163;SDS011;9714;51.208;4.242;2023-04-15T11:28:38;10.73;;;3.83;;
19163;SDS011;9714;51.208;4.242;2023-04-15T11:31:07;8.50;;;3.63;;
19163;SDS011;9714;51.208;4.242;2023-04-15T11:33:36;9.38;;;3.05;;
19163;SDS011;9714;51.208;4.242;2023-04-15T11:36:06;8.15;;;3.35;;
19163;SDS011;9714;51.208;4.242;2023-04-15T11:38:35;10.20;;;3.50;;
19163;SDS011;9714;51.208;4.242;2023-04-15T11:41:05;6.35;;;2.80;;
19163;SDS011;9714;51.208;4.242;2023-04-15T11:43:33;7.05;;;3.08;;
19163;SDS011;9714;51.208;4.242;2023-04-15T11:46:01;8.77;;;3.60;;
19163;SDS011;9714;51.208;4.242;2023-04-15T11:48:31;8.23;;;3.20;;
19163;SDS011;9714;51.208;4.242;2023-04-15T11:50:59;11.82;;;3.42;;
19163;SDS011;9714;51.208;4.242;2023-04-15T11:53:37;8.25;;;3.08;;
19163;SDS011;9714;51.208;4.242;2023-04-15T11:56:07;8.27;;;2.92;;
19163;SDS011;9714;51.208;4.242;2023-04-15T11:58:36;8.20;;;3.08;;
19163;SDS011;9714;51.208;4.242;2023-04-15T12:01:05;6.82;;;2.58;;
19163;SDS011;9714;51.208;4.242;2023-04-15T12:03:36;10.45;;;3.60;;
19163;SDS011;9714;51.208;4.242;2023-04-15T12:06:06;8.10;;;3.67;;
19163;SDS011;9714;51.208;4.242;2023-04-15T12:08:49;9.75;;;3.63;;
19163;SDS011;9714;51.208;4.242;2023-04-15T12:11:18;9.85;;;3.67;;
19163;SDS011;9714;51.208;4.242;2023-04-15T12:13:48;14.88;;;3.58;;
19163;SDS011;9714;51.208;4.242;2023-04-15T12:16:17;7.07;;;3.30;;
19163;SDS011;9714;51.208;4.242;2023-04-15T12:18:46;8.60;;;3.70;;
19163;SDS011;9714;51.208;4.242;2023-04-15T12:21:13;10.40;;;3.70;;
19163;SDS011;9714;51.208;4.242;2023-04-15T12:23:49;7.70;;;3.00;;
19163;SDS011;9714;51.208;4.242;2023-04-15T12:26:20;11.23;;;3.35;;
19163;SDS011;9714;51.208;4.242;2023-04-15T12:28:54;11.00;;;2.85;;
19163;SDS011;9714;51.208;4.242;2023-04-15T12:31:25;6.55;;;2.20;;
19163;SDS011;9714;51.208;4.242;2023-04-15T12:33:53;8.02;;;2.47;;
19163;SDS011;9714;51.208;4.242;2023-04-15T12:36:22;8.20;;;2.53;;
19163;SDS011;9714;51.208;4.242;2023-04-15T12:38:53;7.70;;;2.25;;
19163;SDS011;9714;51.208;4.242;2023-04-15T12:41:21;6.88;;;2.33;;
19163;SDS011;9714;51.208;4.242;2023-04-15T12:43:51;8.90;;;2.92;;
19163;SDS011;9714;51.208;4.242;2023-04-15T12:46:18;8.77;;;3.22;;
19163;SDS011;9714;51.208;4.242;2023-04-15T12:48:47;11.45;;;3.70;;
19163;SDS011;9714;51.208;4.242;2023-04-15T12:51:14;8.15;;;3.00;;
19163;SDS011;9714;51.208;4.242;2023-04-15T12:53:41;8.10;;;2.40;;
19163;SDS011;9714;51.208;4.242;2023-04-15T12:56:10;6.65;;;2.20;;
19163;SDS011;9714;51.208;4.242;2023-04-15T12:58:38;8.85;;;2.75;;
19163;SDS011;9714;51.208;4.242;2023-04-15T13:01:05;9.90;;;2.60;;
19163;SDS011;9714;51.208;4.242;2023-04-15T13:03:32;8.55;;;2.95;;
19163;SDS011;9714;51.208;4.242;2023-04-15T13:06:01;10.85;;;2.40;;
19163;SDS011;9714;51.208;4.242;2023-04-15T13:08:28;7.07;;;2.13;;
19163;SDS011;9714;51.208;4.242;2023-04-15T13:10:57;9.20;;;2.30;;
19163;SDS011;9714;51.208;4.242;2023-04-15T13:13:25;4.63;;;1.25;;
19163;SDS011;9714;51.208;4.242;2023-04-15T13:15:52;6.45;;;1.50;;
19163;SDS011;9714;51.208;4.242;2023-04-15T13:18:21;5.03;;;1.35;;
19163;SDS011;9714;51.208;4.242;2023-04-15T13:20:54;5.25;;;1.30;;
19163;SDS011;9714;51.208;4.242;2023-04-15T13:23:23;3.80;;;1.40;;
19163;SDS011;9714;51.208;4.242;2023-04-15T13:25:53;5.47;;;1.17;;
19163;SDS011;9714;51.208;4.242;2023-04-15T13:28:22;4.53;;;1.60;;
19163;SDS011;9714;51.208;4.242;2023-04-15T13:30:54;6.72;;;1.45;;
19163;SDS011;9714;51.208;4.242;2023-04-15T13:33:22;11.15;;;1.75;;
19163;SDS011;9714;51.208;4.242;2023-04-15T13:35:50;5.95;;;1.83;;
19163;SDS011;9714;51.208;4.242;2023-04-15T13:38:20;4.78;;;1.95;;
19163;SDS011;9714;51.208;4.242;2023-04-15T13:40:48;8.98;;;2.63;;
19163;SDS011;9714;51.208;4.242;2023-04-15T13:43:20;6.72;;;2.15;;
19163;SDS011;9714;51.208;4.242;2023-04-15T13:45:47;11.88;;;2.95;;
19163;SDS011;9714;51.208;4.242;2023-04-15T13:48:14;9.82;;;2.50;;
19163;SDS011;9714;51.208;4.242;2023-04-15T13:50:42;11.18;;;2.67;;
19163;SDS011;9714;51.208;4.242;2023-04-15T13:53:10;8.10;;;2.80;;
19163;SDS011;9714;51.208;4.242;2023-04-15T13:55:38;10.23;;;2.97;;
19163;SDS011;9714;51.208;4.242;2023-04-15T13:58:12;7.47;;;2.53;;
19163;SDS011;9714;51.208;4.242;2023-04-15T14:00:41;6.88;;;2.40;;
19163;SDS011;9714;51.208;4.242;2023-04-15T14:03:11;8.55;;;2.88;;
19163;SDS011;9714;51.208;4.242;2023-04-15T14:05:51;9.07;;;3.13;;
19163;SDS011;9714;51.208;4.242;2023-04-15T14:08:20;9.05;;;4.07;;
19163;SDS011;9714;51.208;4.242;2023-04-15T14:10:47;14.52;;;5.03;;
19163;SDS011;9714;51.208;4.242;2023-04-15T14:13:15;9.68;;;3.80;;
19163;SDS011;9714;51.208;4.242;2023-04-15T14:15:46;10.45;;;4.20;;
19163;SDS011;9714;51.208;4.242;2023-04-15T14:18:13;13.05;;;4.28;;
19163;SDS011;9714;51.208;4.242;2023-04-15T14:20:40;11.38;;;4.57;;
19163;SDS011;9714;51.208;4.242;2023-04-15T14:23:07;12.15;;;4.60;;
19163;SDS011;9714;51.208;4.242;2023-04-15T14:25:35;12.38;;;4.25;;
19163;SDS011;9714;51.208;4.242;2023-04-15T14:28:03;10.65;;;4.25;;
19163;SDS011;9714;51.208;4.242;2023-04-15T14:30:43;11.63;;;4.53;;
19163;SDS011;9714;51.208;4.242;2023-04-15T14:33:12;15.82;;;4.80;;
19163;SDS011;9714;51.208;4.242;2023-04-15T14:35:42;8.98;;;3.83;;
19163;SDS011;9714;51.208;4.242;2023-04-15T14:38:09;10.10;;;3.90;;
19163;SDS011;9714;51.208;4.242;2023-04-15T14:40:36;9.32;;;3.92;;
19163;SDS011;9714;51.208;4.242;2023-04-15T14:43:07;12.75;;;4.78;;
19163;SDS011;9714;51.208;4.242;2023-04-15T14:46:13;11.93;;;4.35;;
19163;SDS011;9714;51.208;4.242;2023-04-15T14:48:41;11.02;;;4.20;;
19163;SDS011;9714;51.208;4.242;2023-04-15T14:51:08;11.65;;;4.40;;
19163;SDS011;9714;51.208;4.242;2023-04-15T14:53:36;11.52;;;3.85;;
19163;SDS011;9714;51.208;4.242;2023-04-15T14:56:03;10.60;;;3.85;;
19163;SDS011;9714;51.208;4.242;2023-04-15T14:58:30;14.70;;;4.53;;
19163;SDS011;9714;51.208;4.242;2023-04-15T15:00:57;14.32;;;4.07;;
19163;SDS011;9714;51.208;4.242;2023-04-15T15:03:28;14.93;;;4.65;;
19163;SDS011;9714;51.208;4.242;2023-04-15T15:05:55;10.82;;;3.38;;
19163;SDS011;9714;51.208;4.242;2023-04-15T15:08:23;13.13;;;4.25;;
19163;SDS011;9714;51.208;4.242;2023-04-15T15:10:51;9.40;;;2.75;;
19163;SDS011;9714;51.208;4.242;2023-04-15T15:13:20;11.68;;;3.95;;
19163;SDS011;9714;51.208;4.242;2023-04-15T15:15:47;16.02;;;4.13;;
19163;SDS011;9714;51.208;4.242;2023-04-15T15:18:14;13.40;;;4.18;;
19163;SDS011;9714;51.208;4.242;2023-04-15T15:20:44;8.68;;;3.28;;
19163;SDS011;9714;51.208;4.242;2023-04-15T15:23:11;11.02;;;3.92;;
19163;SDS011;9714;51.208;4.242;2023-04-15T15:25:38;11.07;;;3.53;;
19163;SDS011;9714;51.208;4.242;2023-04-15T15:28:05;10.25;;;3.35;;
19163;SDS011;9714;51.208;4.242;2023-04-15T15:30:32;10.27;;;3.03;;
19163;SDS011;9714;51.208;4.242;2023-04-15T15:32:59;12.38;;;4.00;;
19163;SDS011;9714;51.208;4.242;2023-04-15T15:35:26;7.85;;;3.08;;
19163;SDS011;9714;51.208;4.242;2023-04-15T15:37:55;10.85;;;2.55;;
19163;SDS011;9714;51.208;4.242;2023-04-15T15:40:23;15.18;;;3.30;;
19163;SDS011;9714;51.208;4.242;2023-04-15T15:42:50;10.43;;;2.65;;
19163;SDS011;9714;51.208;4.242;2023-04-15T15:45:18;7.10;;;2.90;;
19163;SDS011;9714;51.208;4.242;2023-04-15T15:47:46;8.27;;;2.60;;
19163;SDS011;9714;51.208;4.242;2023-04-15T15:50:13;11.27;;;3.00;;
19163;SDS011;9714;51.208;4.242;2023-04-15T15:52:46;13.73;;;2.80;;
19163;SDS011;9714;51.208;4.242;2023-04-15T15:55:21;9.07;;;2.60;;
19163;SDS011;9714;51.208;4.242;2023-04-15T15:57:49;8.00;;;2.23;;
19163;SDS011;9714;51.208;4.242;2023-04-15T16:00:19;11.77;;;2.47;;
19163;SDS011;9714;51.208;4.242;2023-04-15T16:02:47;9.43;;;2.33;;
19163;SDS011;9714;51.208;4.242;2023-04-15T16:05:14;7.93;;;2.23;;
19163;SDS011;9714;51.208;4.242;2023-04-15T16:07:41;10.13;;;2.30;;
19163;SDS011;9714;51.208;4.242;2023-04-15T16:10:08;14.07;;;2.50;;
19163;SDS011;9714;51.208;4.242;2023-04-15T16:12:37;9.47;;;2.50;;
19163;SDS011;9714;51.208;4.242;2023-04-15T16:15:05;8.97;;;2.20;;
19163;SDS011;9714;51.208;4.242;2023-04-15T16:17:48;9.63;;;2.33;;
19163;SDS011;9714;51.208;4.242;2023-04-15T16:20:15;8.47;;;2.73;;
19163;SDS011;9714;51.208;4.242;2023-04-15T16:22:42;8.10;;;2.10;;
19163;SDS011;9714;51.208;4.242;2023-04-15T16:25:09;9.87;;;2.40;;
19163;SDS011;9714;51.208;4.242;2023-04-15T16:27:40;16.93;;;2.87;;
19163;SDS011;9714;51.208;4.242;2023-04-15T16:30:08;11.03;;;2.80;;
19163;SDS011;9714;51.208;4.242;2023-04-15T16:32:42;12.33;;;2.57;;
19163;SDS011;9714;51.208;4.242;2023-04-15T16:35:11;11.57;;;2.50;;
19163;SDS011;9714;51.208;4.242;2023-04-15T16:37:41;8.67;;;2.50;;
19163;SDS011;9714;51.208;4.242;2023-04-15T16:40:08;12.53;;;3.03;;
19163;SDS011;9714;51.208;4.242;2023-04-15T16:42:36;10.33;;;2.73;;
19163;SDS011;9714;51.208;4.242;2023-04-15T16:45:05;11.43;;;2.67;;
19163;SDS011;9714;51.208;4.242;2023-04-15T16:47:33;13.93;;;3.13;;
19163;SDS011;9714;51.208;4.242;2023-04-15T16:49:59;10.23;;;2.73;;
19163;SDS011;9714;51.208;4.242;2023-04-15T16:52:30;9.03;;;2.60;;
19163;SDS011;9714;51.208;4.242;2023-04-15T16:54:57;9.93;;;2.70;;
19163;SDS011;9714;51.208;4.242;2023-04-15T16:57:24;13.43;;;3.07;;
19163;SDS011;9714;51.208;4.242;2023-04-15T16:59:51;10.37;;;3.30;;
19163;SDS011;9714;51.208;4.242;2023-04-15T17:02:19;22.17;;;3.50;;
19163;SDS011;9714;51.208;4.242;2023-04-15T17:04:46;16.90;;;3.47;;
19163;SDS011;9714;51.208;4.242;2023-04-15T17:07:13;12.83;;;3.03;;
19163;SDS011;9714;51.208;4.242;2023-04-15T17:09:40;9.33;;;2.90;;
19163;SDS011;9714;51.208;4.242;2023-04-15T17:12:07;8.17;;;2.97;;
19163;SDS011;9714;51.208;4.242;2023-04-15T17:14:34;9.43;;;3.00;;
19163;SDS011;9714;51.208;4.242;2023-04-15T17:17:02;12.73;;;2.90;;
19163;SDS011;9714;51.208;4.242;2023-04-15T17:19:32;14.33;;;3.40;;
19163;SDS011;9714;51.208;4.242;2023-04-15T17:21:59;9.53;;;2.77;;
19163;SDS011;9714;51.208;4.242;2023-04-15T17:24:27;14.50;;;2.87;;
19163;SDS011;9714;51.208;4.242;2023-04-15T17:26:54;12.30;;;2.97;;
19163;SDS011;9714;51.208;4.242;2023-04-15T17:29:21;10.90;;;2.73;;
19163;SDS011;9714;51.208;4.242;2023-04-15T17:31:49;14.20;;;3.13;;
19163;SDS011;9714;51.208;4.242;2023-04-15T17:34:16;8.77;;;2.00;;
19163;SDS011;9714;51.208;4.242;2023-04-15T17:36:44;11.80;;;2.73;;
19163;SDS011;9714;51.208;4.242;2023-04-15T17:39:12;12.80;;;2.50;;
19163;SDS011;9714;51.208;4.242;2023-04-15T17:41:42;10.50;;;2.83;;
19163;SDS011;9714;51.208;4.242;2023-04-15T17:44:09;9.23;;;2.57;;
19163;SDS011;9714;51.208;4.242;2023-04-15T17:46:38;10.27;;;2.53;;
19163;SDS011;9714;51.208;4.242;2023-04-15T17:49:05;9.33;;;2.17;;
19163;SDS011;9714;51.208;4.242;2023-04-15T17:51:34;8.77;;;2.20;;
19163;SDS011;9714;51.208;4.242;2023-04-15T17:54:03;13.50;;;2.73;;
19163;SDS011;9714;51.208;4.242;2023-04-15T17:56:32;10.60;;;3.00;;
19163;SDS011;9714;51.208;4.242;2023-04-15T17:58:59;12.03;;;3.00;;
19163;SDS011;9714;51.208;4.242;2023-04-15T18:01:27;12.73;;;2.90;;
19163;SDS011;9714;51.208;4.242;2023-04-15T18:03:54;13.33;;;2.70;;
19163;SDS011;9714;51.208;4.242;2023-04-15T18:06:21;14.03;;;3.13;;
19163;SDS011;9714;51.208;4.242;2023-04-15T18:08:56;13.13;;;3.50;;
19163;SDS011;9714;51.208;4.242;2023-04-15T18:11:24;14.10;;;4.10;;
19163;SDS011;9714;51.208;4.242;2023-04-15T18:13:52;12.30;;;3.53;;
19163;SDS011;9714;51.208;4.242;2023-04-15T18:16:19;9.87;;;3.20;;
19163;SDS011;9714;51.208;4.242;2023-04-15T18:18:46;12.80;;;4.33;;
19163;SDS011;9714;51.208;4.242;2023-04-15T18:21:13;14.23;;;3.80;;
19163;SDS011;9714;51.208;4.242;2023-04-15T18:23:40;12.80;;;4.30;;
19163;SDS011;9714;51.208;4.242;2023-04-15T18:26:07;13.10;;;3.77;;
19163;SDS011;9714;51.208;4.242;2023-04-15T18:28:40;13.37;;;3.60;;
19163;SDS011;9714;51.208;4.242;2023-04-15T18:31:10;17.90;;;3.80;;
19163;SDS011;9714;51.208;4.242;2023-04-15T18:33:40;12.97;;;4.27;;
19163;SDS011;9714;51.208;4.242;2023-04-15T18:36:07;16.60;;;4.07;;
19163;SDS011;9714;51.208;4.242;2023-04-15T18:38:35;22.17;;;4.53;;
19163;SDS011;9714;51.208;4.242;2023-04-15T18:41:02;14.23;;;4.40;;
19163;SDS011;9714;51.208;4.242;2023-04-15T18:43:30;18.13;;;4.73;;
19163;SDS011;9714;51.208;4.242;2023-04-15T18:45:59;11.43;;;3.37;;